createdAt,value
2018-09-18T00:03:20.085Z,3.83
2018-09-18T00:08:23.463Z,3.87
2018-09-18T00:13:26.712Z,2.67
2018-09-18T00:18:29.992Z,3.50
2018-09-18T00:23:33.276Z,3.37
2018-09-18T00:28:36.546Z,3.37
2018-09-18T00:33:39.839Z,3.90
2018-09-18T00:38:43.114Z,2.93
2018-09-18T00:43:46.336Z,2.97
2018-09-18T00:48:49.579Z,3.40
2018-09-18T00:53:52.795Z,3.70
2018-09-18T00:58:56.044Z,3.87
2018-09-18T01:03:59.276Z,3.97
2018-09-18T01:09:02.512Z,4.83
2018-09-18T01:14:05.776Z,4.10
2018-09-18T01:19:09.060Z,3.67
2018-09-18T01:24:12.337Z,3.00
2018-09-18T01:29:15.598Z,4.37
2018-09-18T01:34:18.928Z,3.67
2018-09-18T01:39:22.215Z,3.20
2018-09-18T01:44:25.507Z,3.20
2018-09-18T01:49:28.777Z,3.03
2018-09-18T01:54:32.056Z,3.57
2018-09-18T01:59:35.333Z,3.07
2018-09-18T02:04:38.615Z,3.33
2018-09-18T02:09:41.856Z,4.30
2018-09-18T02:14:45.109Z,4.17
2018-09-18T02:19:48.375Z,3.43
2018-09-18T02:24:51.685Z,3.57
2018-09-18T02:29:54.952Z,6.50
2018-09-18T02:34:58.234Z,3.57
2018-09-18T02:40:01.512Z,4.63
2018-09-18T02:45:04.800Z,2.83
2018-09-18T02:50:08.084Z,3.80
2018-09-18T02:55:11.337Z,4.03
2018-09-18T03:00:14.605Z,3.40
2018-09-18T03:05:17.889Z,7.57
2018-09-18T03:10:21.136Z,3.33
2018-09-18T03:15:24.396Z,3.50
2018-09-18T03:20:27.673Z,3.47
2018-09-18T03:25:30.949Z,2.80
2018-09-18T03:30:34.222Z,3.40
2018-09-18T03:35:37.606Z,3.33
2018-09-18T03:40:40.847Z,4.27
2018-09-18T03:45:44.158Z,3.77
2018-09-18T03:50:47.428Z,4.20
2018-09-18T03:55:50.696Z,3.87
2018-09-18T04:00:54.248Z,3.50
2018-09-18T04:05:57.519Z,3.43
2018-09-18T04:11:00.785Z,4.30
2018-09-18T04:16:04.040Z,3.17
2018-09-18T04:21:07.322Z,7.67
2018-09-18T04:26:10.588Z,3.67
2018-09-18T04:31:14.041Z,6.07
2018-09-18T04:36:17.288Z,3.20
2018-09-18T04:41:20.591Z,3.67
2018-09-18T04:46:24.062Z,3.57
2018-09-18T04:51:27.314Z,4.00
2018-09-18T04:56:30.746Z,3.70
2018-09-18T05:01:34.182Z,4.20
2018-09-18T05:06:37.428Z,4.33
2018-09-18T05:11:40.820Z,4.23
2018-09-18T05:16:44.085Z,3.97
2018-09-18T05:21:47.361Z,3.87
2018-09-18T05:26:50.612Z,3.43
2018-09-18T05:31:53.872Z,4.37
2018-09-18T05:36:57.153Z,5.53
2018-09-18T05:42:00.514Z,5.20
2018-09-18T05:47:03.696Z,5.27
2018-09-18T05:52:06.967Z,5.70
2018-09-18T05:57:10.327Z,4.27
2018-09-18T06:02:13.616Z,4.37
2018-09-18T06:07:17.076Z,4.37
2018-09-18T06:12:20.376Z,4.03
2018-09-18T06:17:23.601Z,3.73
2018-09-18T06:22:26.844Z,4.53
2018-09-18T06:27:30.088Z,4.03
2018-09-18T06:32:33.398Z,7.10
2018-09-18T06:37:36.703Z,4.47
2018-09-18T06:42:39.932Z,4.30
2018-09-18T06:47:43.185Z,3.60
2018-09-18T06:52:46.480Z,4.30
2018-09-18T06:57:49.760Z,4.33
2018-09-18T07:02:53.064Z,4.80
2018-09-18T07:07:56.325Z,3.97
2018-09-18T07:12:59.624Z,3.60
2018-09-18T07:18:02.918Z,5.83
2018-09-18T07:23:06.169Z,3.73
2018-09-18T07:28:09.413Z,3.90
2018-09-18T07:33:12.685Z,4.40
2018-09-18T07:38:15.977Z,9.77
2018-09-18T07:43:19.240Z,5.40
2018-09-18T07:48:22.593Z,7.00
2018-09-18T07:53:25.837Z,3.50
2018-09-18T07:58:29.104Z,4.47
2018-09-18T08:03:32.382Z,3.90
2018-09-18T08:08:35.661Z,4.70
2018-09-18T08:13:38.909Z,4.67
2018-09-18T08:18:42.310Z,4.53
2018-09-18T08:23:45.537Z,4.93
2018-09-18T08:28:48.817Z,4.30
2018-09-18T08:33:52.069Z,6.00
2018-09-18T08:38:55.345Z,5.23
2018-09-18T08:43:58.636Z,4.70
2018-09-18T08:49:01.901Z,5.83
2018-09-18T08:54:05.136Z,4.67
2018-09-18T08:59:08.373Z,3.80
2018-09-18T09:04:11.616Z,4.37
2018-09-18T09:09:15.443Z,4.77
2018-09-18T09:14:18.689Z,3.93
2018-09-18T09:19:21.917Z,5.30
2018-09-18T09:24:25.183Z,3.50
2018-09-18T09:29:28.410Z,4.80
2018-09-18T09:34:31.669Z,4.53
2018-09-18T09:39:34.952Z,4.33
2018-09-18T09:44:38.257Z,4.53
2018-09-18T09:49:41.581Z,3.90
2018-09-18T09:54:44.813Z,4.20
2018-09-18T09:59:48.075Z,5.00
2018-09-18T10:04:51.337Z,4.33
2018-09-18T10:09:54.595Z,5.50
2018-09-18T10:14:57.844Z,4.17
2018-09-18T10:20:01.093Z,3.80
2018-09-18T10:25:04.492Z,3.47
2018-09-18T10:30:07.684Z,3.90
2018-09-18T10:35:10.981Z,5.50
2018-09-18T10:40:14.257Z,7.60
2018-09-18T10:45:17.511Z,4.57
2018-09-18T10:50:20.766Z,7.33
2018-09-18T10:55:24.096Z,5.13
2018-09-18T11:00:27.326Z,3.50
2018-09-18T11:05:30.542Z,3.70
2018-09-18T11:10:33.844Z,3.77
2018-09-18T11:15:37.207Z,4.23
2018-09-18T11:20:40.399Z,3.03
2018-09-18T11:25:43.661Z,3.60
2018-09-18T11:30:46.905Z,4.00
2018-09-18T11:35:50.187Z,5.83
2018-09-18T11:40:53.451Z,5.10
2018-09-18T11:45:56.812Z,3.57
2018-09-18T11:50:59.998Z,3.87
2018-09-18T11:56:03.269Z,9.57
2018-09-18T12:01:06.566Z,4.17
2018-09-18T12:06:09.834Z,4.43
2018-09-18T12:11:13.135Z,4.47
2018-09-18T12:16:16.362Z,4.60
2018-09-18T12:21:19.617Z,4.80
2018-09-18T12:26:22.868Z,4.40
2018-09-18T12:31:26.142Z,8.87
2018-09-18T12:36:29.441Z,4.53
2018-09-18T12:41:32.815Z,5.30
2018-09-18T12:46:35.978Z,7.77
2018-09-18T12:51:39.238Z,5.30
2018-09-18T12:56:42.486Z,7.87
2018-09-18T13:01:45.746Z,5.83
2018-09-18T13:06:49.380Z,4.10
2018-09-18T13:11:52.562Z,12.40
2018-09-18T13:16:55.910Z,6.97
2018-09-18T13:21:59.171Z,4.80
2018-09-18T13:27:03.136Z,6.10
2018-09-18T13:32:06.540Z,5.40
2018-09-18T13:37:09.825Z,5.80
2018-09-18T13:42:13.104Z,4.40
2018-09-18T13:47:16.401Z,5.73
2018-09-18T13:52:19.685Z,25.52
2018-09-18T13:57:22.953Z,24.70
2018-09-18T14:02:26.372Z,14.17
2018-09-18T14:07:37.412Z,10.80
2018-09-18T14:12:40.717Z,10.13
2018-09-18T14:17:43.949Z,9.60
2018-09-18T14:22:47.177Z,12.87
2018-09-18T14:27:50.468Z,11.90
2018-09-18T14:32:53.769Z,9.63
2018-09-18T14:37:57.101Z,12.33
2018-09-18T14:43:00.339Z,15.50
2018-09-18T14:48:03.654Z,5.93
2018-09-18T14:53:06.928Z,16.07
2018-09-18T14:58:10.192Z,10.23
2018-09-18T15:03:13.425Z,5.87
2018-09-18T15:08:16.863Z,7.40
2018-09-18T15:13:20.104Z,8.73
2018-09-18T15:18:23.498Z,5.27
2018-09-18T15:23:26.792Z,10.40
2018-09-18T15:28:30.934Z,7.00
2018-09-18T15:33:34.259Z,7.57
2018-09-18T15:38:37.459Z,7.30
2018-09-18T15:43:40.724Z,5.20
2018-09-18T15:48:43.996Z,5.27
2018-09-18T15:53:47.300Z,5.00
2018-09-18T15:58:56.920Z,3.43
2018-09-18T16:04:00.469Z,6.43
2018-09-18T16:09:05.080Z,6.20
2018-09-18T16:14:09.040Z,3.07
2018-09-18T16:19:12.316Z,13.67
2018-09-18T16:24:15.559Z,7.70
2018-09-18T16:29:18.810Z,18.47
2018-09-18T16:34:22.260Z,12.83
2018-09-18T16:39:26.109Z,23.33
2018-09-18T16:44:29.349Z,21.53
2018-09-18T16:49:32.624Z,25.37
2018-09-18T16:54:35.931Z,20.40
2018-09-18T16:59:39.127Z,35.03
2018-09-18T17:04:42.467Z,41.70
2018-09-18T17:09:45.666Z,54.80
2018-09-18T17:14:48.927Z,54.70
2018-09-18T17:19:52.165Z,51.10
2018-09-18T17:24:55.401Z,48.13
2018-09-18T17:29:58.664Z,58.73
2018-09-18T17:35:01.983Z,107.80
2018-09-18T17:40:05.323Z,78.53
2018-09-18T17:45:08.658Z,72.17
2018-09-18T17:50:11.959Z,64.60
2018-09-18T17:55:15.175Z,58.30
2018-09-18T18:00:18.437Z,42.23
2018-09-18T18:05:21.710Z,50.60
2018-09-18T18:10:24.961Z,38.37
2018-09-18T18:15:28.658Z,32.93
2018-09-18T18:20:32.141Z,42.10
2018-09-18T18:25:35.303Z,34.60
2018-09-18T18:30:38.540Z,34.93
2018-09-18T18:35:41.820Z,30.10
2018-09-18T18:40:45.104Z,31.43
2018-09-18T18:45:48.367Z,29.83
2018-09-18T18:50:51.612Z,26.93
2018-09-18T18:55:58.048Z,26.37
2018-09-18T19:01:01.301Z,22.53
2018-09-18T19:06:04.601Z,21.47
2018-09-18T19:11:07.964Z,19.00
2018-09-18T19:16:11.289Z,22.10
2018-09-18T19:21:14.532Z,24.77
2018-09-18T19:26:17.821Z,22.33
2018-09-18T19:31:21.092Z,18.47
2018-09-18T19:36:24.362Z,16.93
2018-09-18T19:41:27.665Z,14.37
2018-09-18T19:46:30.937Z,18.73
2018-09-18T19:51:34.184Z,18.93
2018-09-18T19:56:37.998Z,12.60
2018-09-18T20:01:41.279Z,10.00
2018-09-18T20:06:44.510Z,16.03
2018-09-18T20:11:48.409Z,13.70
2018-09-18T20:16:52.117Z,9.20
2018-09-18T20:21:55.361Z,13.77
2018-09-18T20:26:58.709Z,11.33
2018-09-18T20:32:01.964Z,13.03
2018-09-18T20:37:05.250Z,9.90
2018-09-18T20:42:08.592Z,7.20
2018-09-18T20:47:11.858Z,14.70
2018-09-18T20:52:15.114Z,8.70
2018-09-18T20:57:18.433Z,10.57
2018-09-18T21:02:21.727Z,9.27
2018-09-18T21:07:25.003Z,6.97
2018-09-18T21:12:28.316Z,8.97
2018-09-18T21:17:31.551Z,7.57
2018-09-18T21:22:34.793Z,10.40
2018-09-18T21:27:38.048Z,5.40
2018-09-18T21:32:41.307Z,6.93
2018-09-18T21:37:44.540Z,5.40
2018-09-18T21:42:47.823Z,6.40
2018-09-18T21:47:51.090Z,6.53
2018-09-18T21:52:54.320Z,6.80
2018-09-18T21:57:57.593Z,13.97
2018-09-18T22:03:01.548Z,6.33
2018-09-18T22:08:04.795Z,6.10
2018-09-18T22:13:08.037Z,6.63
2018-09-18T22:18:11.289Z,6.33
2018-09-18T22:23:14.543Z,4.90
2018-09-18T22:28:17.788Z,8.90
2018-09-18T22:33:21.017Z,7.97
2018-09-18T22:38:24.260Z,7.73
2018-09-18T22:43:27.553Z,5.70
2018-09-18T22:48:30.833Z,5.30
2018-09-18T22:53:34.085Z,4.80
2018-09-18T22:58:37.313Z,4.43
2018-09-18T23:03:40.568Z,6.00
2018-09-18T23:08:44.210Z,8.00
2018-09-18T23:13:47.476Z,5.23
2018-09-18T23:18:50.750Z,6.10
2018-09-18T23:23:53.964Z,4.03
2018-09-18T23:28:57.208Z,15.80
2018-09-18T23:34:00.523Z,4.00
2018-09-18T23:39:05.032Z,4.10
2018-09-18T23:44:08.435Z,7.33
2018-09-18T23:49:11.740Z,7.90
2018-09-18T23:54:14.976Z,6.63
2018-09-18T23:59:18.208Z,4.37
